Time;durP1;ratioP1;P1;durP2;ratioP2;P2;SDS_P1;SDS_P2;PMS_P1;PMS_P2;Temp;Humidity;BMP_temperature;BMP_pressure;BME280_temperature;BME280_humidity;BME280_pressure;Samples;Min_cycle;Max_cycle;Signal;HPM_P1;HPM_P2
2022/03/27 00:02:09;;;;;;;27.13;18.00;;;5.40;11.90;;;;;;5014600;28;20294;-67
2022/03/27 00:04:35;;;;;;;18.63;16.70;;;5.30;12.50;;;;;;5014393;28;20273;-68
2022/03/27 00:07:00;;;;;;;19.60;17.87;;;5.30;12.30;;;;;;5015145;28;20204;-67
2022/03/27 00:09:26;;;;;;;19.60;17.60;;;5.30;12.70;;;;;;5015272;28;20215;-68
2022/03/27 00:11:52;;;;;;;19.73;18.13;;;5.30;12.40;;;;;;5014317;28;20172;-67
2022/03/27 00:14:17;;;;;;;20.03;18.07;;;5.30;12.60;;;;;;5015282;28;20184;-68
2022/03/27 00:16:43;;;;;;;20.83;18.73;;;5.20;13.20;;;;;;5014728;28;20206;-68
2022/03/27 00:19:09;;;;;;;20.63;18.77;;;5.10;13.10;;;;;;5015409;28;20188;-68
2022/03/27 00:21:35;;;;;;;18.73;16.83;;;5.10;13.40;;;;;;5015068;28;20294;-68
2022/03/27 00:24:01;;;;;;;19.80;17.90;;;5.00;13.30;;;;;;5015329;28;20186;-67
2022/03/27 00:26:27;;;;;;;19.35;17.55;;;5.10;13.20;;;;;;5015114;28;20411;-68
2022/03/27 00:28:52;;;;;;;20.90;19.03;;;5.00;13.40;;;;;;5013316;28;20226;-69
2022/03/27 00:31:19;;;;;;;18.37;16.87;;;4.90;13.50;;;;;;5015162;28;20175;-67
2022/03/27 00:33:46;;;;;;;16.80;15.52;;;4.90;13.50;;;;;;5013967;28;20176;-68
2022/03/27 00:36:13;;;;;;;21.23;17.90;;;4.90;13.90;;;;;;5014982;28;20542;-68
2022/03/27 00:38:43;;;;;;;18.95;17.35;;;4.80;14.00;;;;;;5014432;28;20229;-68
2022/03/27 00:41:10;;;;;;;20.50;18.83;;;4.70;14.10;;;;;;5014924;28;20311;-67
2022/03/27 00:43:36;;;;;;;17.67;15.68;;;4.60;14.30;;;;;;5014871;28;20184;-67
2022/03/27 00:46:02;;;;;;;19.70;17.85;;;4.70;14.40;;;;;;5014956;28;20163;-67
2022/03/27 00:48:28;;;;;;;17.97;16.53;;;4.70;14.50;;;;;;5014342;28;20265;-69
2022/03/27 00:50:54;;;;;;;18.37;16.80;;;4.60;14.70;;;;;;5014572;28;20463;-68
2022/03/27 00:53:21;;;;;;;19.77;18.05;;;4.60;14.70;;;;;;5014690;28;20772;-69
2022/03/27 00:55:48;;;;;;;19.23;17.30;;;4.60;14.30;;;;;;5014371;28;20451;-69
2022/03/27 00:58:14;;;;;;;18.73;16.92;;;4.60;14.70;;;;;;5014173;28;20204;-67
2022/03/27 01:00:45;;;;;;;18.90;16.87;;;4.70;14.60;;;;;;5015008;28;20176;-68
2022/03/27 01:03:15;;;;;;;19.90;18.08;;;4.70;14.40;;;;;;5014560;28;20791;-70
2022/03/27 01:05:43;;;;;;;20.85;18.73;;;4.70;14.30;;;;;;5013232;28;20218;-69
2022/03/27 01:08:10;;;;;;;17.13;15.82;;;4.60;14.60;;;;;;5013664;28;20214;-69
2022/03/27 01:10:37;;;;;;;16.70;15.05;;;4.60;14.70;;;;;;5014524;28;20307;-70
2022/03/27 01:13:23;;;;;;;18.75;17.08;;;4.60;14.80;;;;;;5013928;28;20203;-69
2022/03/27 01:15:53;;;;;;;18.23;16.55;;;4.60;14.70;;;;;;5013950;28;20278;-69
2022/03/27 01:18:19;;;;;;;17.67;16.15;;;4.50;14.70;;;;;;5013790;28;20317;-69
2022/03/27 01:20:44;;;;;;;17.60;15.98;;;4.50;14.70;;;;;;5014771;28;20196;-70
2022/03/27 01:23:12;;;;;;;17.57;15.97;;;4.50;14.80;;;;;;5014114;28;20175;-70
2022/03/27 01:25:40;;;;;;;15.88;14.68;;;4.40;14.90;;;;;;5015230;28;20204;-70
2022/03/27 01:28:08;;;;;;;16.25;14.95;;;4.30;15.20;;;;;;5008828;28;20258;-71
2022/03/27 01:30:34;;;;;;;20.20;15.82;;;4.30;15.00;;;;;;4994771;28;20200;-69
2022/03/27 01:33:00;;;;;;;18.27;16.52;;;4.20;15.40;;;;;;5013757;28;20188;-70
2022/03/27 01:35:25;;;;;;;16.30;14.60;;;4.10;15.30;;;;;;5015026;28;20184;-69
2022/03/27 01:37:51;;;;;;;18.33;15.67;;;4.10;15.70;;;;;;5013253;28;20204;-70
2022/03/27 01:40:17;;;;;;;17.90;16.23;;;4.10;15.30;;;;;;5014004;28;20179;-70
2022/03/27 01:42:44;;;;;;;17.45;15.68;;;4.20;15.40;;;;;;5014191;28;20260;-69
2022/03/27 01:45:10;;;;;;;17.35;15.65;;;4.00;16.20;;;;;;5014127;28;20180;-69
2022/03/27 01:47:37;;;;;;;19.83;17.08;;;4.00;16.20;;;;;;5013736;28;20203;-69
2022/03/27 01:50:04;;;;;;;16.60;14.88;;;3.90;16.30;;;;;;5014445;28;20208;-70
2022/03/27 01:52:29;;;;;;;15.95;14.65;;;3.80;16.70;;;;;;5013202;28;20179;-70
2022/03/27 01:54:55;;;;;;;16.70;15.40;;;3.90;16.40;;;;;;5013736;28;20191;-70
2022/03/27 01:57:21;;;;;;;17.97;16.20;;;3.90;16.70;;;;;;5011845;28;20208;-70
2022/03/27 01:59:47;;;;;;;16.93;15.40;;;3.90;16.40;;;;;;5012392;28;20180;-70
2022/03/27 02:02:12;;;;;;;17.13;15.52;;;3.90;16.20;;;;;;5013418;28;20202;-71
2022/03/27 02:04:38;;;;;;;19.30;16.30;;;3.90;16.50;;;;;;5013284;28;20372;-70
2022/03/27 02:07:05;;;;;;;20.90;16.67;;;3.90;16.60;;;;;;5012417;28;20203;-71
2022/03/27 02:09:30;;;;;;;24.40;16.85;;;3.80;16.80;;;;;;5013086;28;20200;-70
2022/03/27 02:11:56;;;;;;;19.03;17.03;;;3.90;16.90;;;;;;5013093;28;20251;-69
2022/03/27 02:14:21;;;;;;;16.83;15.37;;;4.00;16.40;;;;;;5013254;28;20192;-70
2022/03/27 02:16:47;;;;;;;17.53;15.10;;;3.90;16.40;;;;;;5012350;28;20180;-70
2022/03/27 02:19:13;;;;;;;18.97;16.20;;;4.00;16.40;;;;;;5012971;28;20275;-70
2022/03/27 02:21:41;;;;;;;31.47;17.33;;;4.00;16.30;;;;;;5013182;28;20227;-70
2022/03/27 02:24:10;;;;;;;16.75;14.93;;;3.80;16.60;;;;;;5013154;28;20656;-70
2022/03/27 02:26:43;;;;;;;15.90;14.40;;;3.80;16.80;;;;;;5012707;28;20176;-70
2022/03/27 02:29:17;;;;;;;17.05;15.35;;;3.70;16.80;;;;;;4993214;28;20211;-70
2022/03/27 02:31:43;;;;;;;17.20;15.73;;;3.70;17.50;;;;;;4993575;28;20183;-71
2022/03/27 02:34:10;;;;;;;17.45;15.75;;;3.70;17.00;;;;;;4993167;28;20211;-70
2022/03/27 02:36:35;;;;;;;17.13;15.45;;;3.70;17.20;;;;;;4992919;28;20838;-71
2022/03/27 02:39:02;;;;;;;16.47;15.00;;;3.70;17.40;;;;;;4992995;28;20238;-70
2022/03/27 02:41:27;;;;;;;17.38;15.63;;;3.60;17.50;;;;;;4993567;28;20208;-70
2022/03/27 02:43:53;;;;;;;17.47;15.50;;;3.60;17.60;;;;;;5008513;28;20215;-70
2022/03/27 02:46:20;;;;;;;16.90;15.30;;;3.60;17.60;;;;;;5011906;28;20271;-70
2022/03/27 02:48:45;;;;;;;16.80;15.25;;;3.50;17.60;;;;;;5012393;28;20226;-69
2022/03/27 02:51:11;;;;;;;16.20;13.30;;;3.60;17.90;;;;;;5013303;28;20294;-69
2022/03/27 02:53:36;;;;;;;20.53;15.27;;;3.40;18.10;;;;;;5012862;28;20187;-69
2022/03/27 02:56:06;;;;;;;28.33;16.13;;;3.50;18.00;;;;;;5012513;28;20215;-70
2022/03/27 02:58:32;;;;;;;17.95;15.65;;;3.60;17.50;;;;;;5012900;28;20214;-70
2022/03/27 03:00:57;;;;;;;19.33;15.50;;;3.50;17.60;;;;;;5013819;28;20172;-69
2022/03/27 03:03:23;;;;;;;15.33;13.90;;;3.50;18.10;;;;;;5011228;28;20540;-69
2022/03/27 03:05:49;;;;;;;17.13;14.13;;;3.50;17.80;;;;;;5012948;28;20191;-68
2022/03/27 03:08:17;;;;;;;19.60;15.00;;;3.50;17.70;;;;;;5012338;28;20199;-70
2022/03/27 03:10:44;;;;;;;15.90;14.35;;;3.50;17.60;;;;;;5012365;28;20672;-70
2022/03/27 03:13:10;;;;;;;16.13;14.60;;;3.40;17.80;;;;;;5012328;28;20176;-69
2022/03/27 03:15:37;;;;;;;17.42;15.60;;;3.40;17.80;;;;;;5012561;28;20178;-71
2022/03/27 03:18:04;;;;;;;18.55;16.70;;;3.30;17.70;;;;;;5012821;28;20215;-71
2022/03/27 03:20:30;;;;;;;18.63;16.73;;;3.40;17.90;;;;;;5015511;28;20186;-71
2022/03/27 03:22:55;;;;;;;18.43;15.90;;;3.20;17.90;;;;;;5016545;28;20205;-71
2022/03/27 03:25:22;;;;;;;16.97;15.37;;;3.30;18.10;;;;;;5016218;28;20414;-70
2022/03/27 03:27:48;;;;;;;19.10;15.60;;;3.30;18.00;;;;;;5015934;28;20651;-69
2022/03/27 03:30:13;;;;;;;22.30;15.63;;;3.20;18.20;;;;;;5035425;28;20248;-69
2022/03/27 03:32:39;;;;;;;16.43;14.63;;;3.10;18.90;;;;;;5029858;28;20194;-70
2022/03/27 03:35:05;;;;;;;19.67;15.93;;;3.10;18.90;;;;;;5026085;28;20610;-69
2022/03/27 03:37:31;;;;;;;15.60;13.50;;;2.90;18.80;;;;;;5018084;28;20213;-70
2022/03/27 03:39:56;;;;;;;16.43;13.67;;;2.90;19.00;;;;;;5008625;28;20191;-69
2022/03/27 03:42:22;;;;;;;22.70;15.10;;;2.90;18.80;;;;;;4995638;28;20199;-69
2022/03/27 03:44:47;;;;;;;18.93;14.83;;;3.00;18.90;;;;;;4997327;28;20180;-70
2022/03/27 03:47:13;;;;;;;15.60;14.00;;;3.00;18.90;;;;;;5011241;28;20214;-69
2022/03/27 03:49:39;;;;;;;18.60;15.80;;;3.10;18.90;;;;;;5015886;28;20215;-67
2022/03/27 03:52:06;;;;;;;16.43;14.83;;;3.10;18.90;;;;;;5015520;28;20189;-69
2022/03/27 03:54:33;;;;;;;16.20;14.43;;;3.10;18.90;;;;;;5015895;28;20178;-69
2022/03/27 03:56:58;;;;;;;14.95;13.70;;;3.00;18.90;;;;;;5015409;28;20222;-69
2022/03/27 03:59:24;;;;;;;18.20;16.60;;;2.90;18.80;;;;;;5010940;28;20244;-70
2022/03/27 04:01:49;;;;;;;14.33;13.20;;;2.90;19.70;;;;;;4995986;28;20221;-70
2022/03/27 04:04:15;;;;;;;16.03;14.33;;;2.90;20.00;;;;;;5013652;28;20194;-70
2022/03/27 04:06:40;;;;;;;17.43;15.73;;;3.00;19.80;;;;;;5014609;28;20186;-70
2022/03/27 04:09:06;;;;;;;15.93;14.43;;;2.90;19.50;;;;;;5015719;28;20210;-69
2022/03/27 04:11:31;;;;;;;16.77;14.93;;;2.90;19.60;;;;;;5015498;28;20611;-69
2022/03/27 04:13:57;;;;;;;20.07;16.70;;;2.90;19.20;;;;;;5014869;28;20195;-69
2022/03/27 04:16:23;;;;;;;17.93;14.80;;;3.00;18.90;;;;;;5014734;28;20206;-69
2022/03/27 04:18:48;;;;;;;16.00;14.57;;;3.00;18.90;;;;;;5015102;28;20273;-70
2022/03/27 04:21:14;;;;;;;18.97;17.03;;;3.00;18.90;;;;;;5015311;28;20191;-70
2022/03/27 04:23:39;;;;;;;18.13;15.53;;;3.00;18.90;;;;;;5017207;28;20175;-70
2022/03/27 04:26:05;;;;;;;17.30;15.70;;;2.90;18.80;;;;;;5015478;28;20178;-69
2022/03/27 04:28:31;;;;;;;18.53;15.47;;;2.80;19.30;;;;;;4999573;28;20206;-70
2022/03/27 04:30:56;;;;;;;14.83;13.43;;;2.70;19.70;;;;;;4994169;28;20211;-70
2022/03/27 04:33:22;;;;;;;17.03;15.40;;;2.70;20.00;;;;;;5011291;28;20188;-69
2022/03/27 04:35:47;;;;;;;24.17;16.00;;;2.70;20.10;;;;;;5022354;28;20193;-69
2022/03/27 04:38:14;;;;;;;20.33;14.93;;;2.70;19.70;;;;;;5014662;28;20211;-70
2022/03/27 04:40:40;;;;;;;14.02;12.80;;;2.70;19.80;;;;;;5015107;28;20190;-69
2022/03/27 04:43:06;;;;;;;23.42;15.48;;;2.60;19.80;;;;;;5015437;28;20550;-68
2022/03/27 04:45:32;;;;;;;19.02;14.43;;;2.70;20.40;;;;;;5015193;28;20540;-70
2022/03/27 04:47:58;;;;;;;15.40;14.00;;;2.60;20.60;;;;;;5015637;28;20193;-70
2022/03/27 04:50:24;;;;;;;17.27;14.30;;;2.60;20.60;;;;;;5017094;28;20205;-70
2022/03/27 04:52:49;;;;;;;17.33;15.00;;;2.50;21.10;;;;;;5015788;28;20229;-70
2022/03/27 04:55:15;;;;;;;15.33;14.00;;;2.50;21.30;;;;;;5015036;28;20416;-70
2022/03/27 04:57:41;;;;;;;16.67;14.90;;;2.40;21.00;;;;;;5014329;28;20697;-70
2022/03/27 05:00:14;;;;;;;16.15;14.50;;;2.40;21.20;;;;;;5015319;28;20191;-70
2022/03/27 05:02:41;;;;;;;18.17;16.13;;;2.40;20.90;;;;;;5014856;28;20186;-69
2022/03/27 05:05:08;;;;;;;19.08;16.00;;;2.40;20.90;;;;;;5014425;28;20182;-69
2022/03/27 05:07:36;;;;;;;17.15;15.60;;;2.40;20.80;;;;;;5013938;28;20210;-69
2022/03/27 05:10:02;;;;;;;17.60;16.05;;;2.50;20.60;;;;;;5014715;28;20712;-68
2022/03/27 05:12:28;;;;;;;15.93;14.35;;;2.40;20.70;;;;;;5014776;28;20187;-70
2022/03/27 05:14:53;;;;;;;26.00;15.77;;;2.50;20.80;;;;;;5013202;28;20522;-69
2022/03/27 05:17:19;;;;;;;22.57;16.37;;;2.50;20.50;;;;;;5014258;28;20700;-69
2022/03/27 05:19:44;;;;;;;15.80;14.10;;;2.50;20.50;;;;;;5012605;28;20175;-69
2022/03/27 05:22:10;;;;;;;20.30;17.13;;;2.50;20.80;;;;;;5013763;28;20220;-69
2022/03/27 05:24:35;;;;;;;17.83;16.03;;;2.50;20.90;;;;;;5012529;28;20183;-69
2022/03/27 05:27:01;;;;;;;16.30;14.63;;;2.50;20.80;;;;;;5008952;28;20203;-69
2022/03/27 05:29:26;;;;;;;24.87;16.60;;;2.50;21.20;;;;;;4993964;28;20207;-69
2022/03/27 05:31:52;;;;;;;17.60;14.00;;;2.50;21.10;;;;;;4994060;28;20653;-69
2022/03/27 05:34:18;;;;;;;17.50;15.13;;;2.50;21.10;;;;;;5001839;28;20186;-69
2022/03/27 05:36:45;;;;;;;18.27;16.48;;;2.60;21.10;;;;;;5011699;28;20618;-70
2022/03/27 05:39:11;;;;;;;15.90;14.30;;;2.70;21.00;;;;;;5013603;28;20521;-68
2022/03/27 05:41:37;;;;;;;15.80;13.68;;;2.80;20.70;;;;;;5012328;28;20178;-69
2022/03/27 05:44:03;;;;;;;16.73;15.03;;;2.90;22.90;;;;;;5013258;28;20194;-68
2022/03/27 05:46:28;;;;;;;20.57;16.87;;;2.80;23.00;;;;;;5013060;28;20186;-68
2022/03/27 05:48:54;;;;;;;20.80;17.70;;;2.80;22.30;;;;;;5013295;28;20199;-68
2022/03/27 05:51:19;;;;;;;20.40;17.23;;;2.80;20.80;;;;;;5013501;28;20183;-68
2022/03/27 05:53:45;;;;;;;16.00;14.37;;;2.90;21.10;;;;;;5013138;28;20735;-68
2022/03/27 05:56:10;;;;;;;20.90;15.20;;;3.20;21.40;;;;;;5012438;28;20170;-68
2022/03/27 05:58:37;;;;;;;18.70;16.80;;;3.50;20.60;;;;;;5013769;28;20196;-68
2022/03/27 06:01:04;;;;;;;17.33;15.75;;;4.10;20.40;;;;;;5013162;28;20223;-68
2022/03/27 06:03:29;;;;;;;17.75;15.98;;;4.70;19.90;;;;;;4994317;28;20180;-69
2022/03/27 06:05:55;;;;;;;18.83;17.23;;;5.40;18.80;;;;;;4993382;28;20174;-68
2022/03/27 06:08:21;;;;;;;18.57;16.90;;;6.10;16.70;;;;;;4991612;28;20537;-69
2022/03/27 06:10:48;;;;;;;20.20;18.40;;;6.90;16.30;;;;;;4993345;28;20240;-68
2022/03/27 06:13:14;;;;;;;24.33;19.07;;;7.60;14.60;;;;;;4993188;28;20180;-68
2022/03/27 06:15:40;;;;;;;21.03;19.30;;;8.20;11.80;;;;;;5010489;28;20413;-68
2022/03/27 06:18:10;;;;;;;18.80;17.50;;;8.70;11.60;;;;;;5012464;28;20815;-69
2022/03/27 06:20:36;;;;;;;20.60;18.70;;;9.30;11.60;;;;;;5012991;28;20179;-69
2022/03/27 06:23:02;;;;;;;18.97;17.20;;;10.00;9.70;;;;;;5012762;28;20783;-68
2022/03/27 06:25:28;;;;;;;20.50;18.90;;;10.50;8.80;;;;;;5012808;28;20505;-69
2022/03/27 06:27:55;;;;;;;22.13;20.50;;;11.10;6.10;;;;;;5012329;28;20945;-69
2022/03/27 06:30:23;;;;;;;20.90;19.40;;;11.60;6.20;;;;;;5012660;28;21035;-68
2022/03/27 06:32:50;;;;;;;22.40;20.77;;;12.00;5.60;;;;;;5012803;28;20499;-69
2022/03/27 06:35:16;;;;;;;22.50;21.00;;;12.50;4.30;;;;;;5013439;28;20417;-67
2022/03/27 06:37:43;;;;;;;21.77;20.40;;;12.70;3.10;;;;;;5014292;28;20438;-68
2022/03/27 06:40:10;;;;;;;19.20;17.90;;;12.80;3.80;;;;;;5014407;28;20418;-69
2022/03/27 06:42:36;;;;;;;22.73;20.43;;;13.30;3.70;;;;;;5015047;28;20414;-68
2022/03/27 06:45:03;;;;;;;23.03;21.10;;;13.70;3.30;;;;;;5015324;28;20450;-69
2022/03/27 06:47:29;;;;;;;22.80;20.80;;;14.00;1.90;;;;;;5015314;28;20444;-68
2022/03/27 06:49:56;;;;;;;22.33;20.37;;;14.00;2.00;;;;;;5014102;28;20470;-68
2022/03/27 06:52:23;;;;;;;22.47;20.97;;;14.30;1.00;;;;;;5013955;28;20424;-69
2022/03/27 06:54:49;;;;;;;26.30;24.00;;;13.70;1.40;;;;;;5014040;28;20407;-68
2022/03/27 06:57:14;;;;;;;22.40;20.70;;;13.80;1.00;;;;;;5014958;28;20443;-68
2022/03/27 07:05:17;;;;;;;24.20;22.40;;;13.70;1.00;;;;;;5014602;28;20851;-70
2022/03/27 07:07:43;;;;;;;26.07;23.97;;;13.60;1.30;;;;;;5012590;28;20519;-70
2022/03/27 07:10:10;;;;;;;24.90;22.80;;;13.30;1.00;;;;;;5011466;28;20852;-70
2022/03/27 07:12:35;;;;;;;26.67;24.20;;;13.20;1.20;;;;;;5012334;28;20710;-71
2022/03/27 07:15:01;;;;;;;25.10;22.90;;;13.10;1.10;;;;;;5012245;28;20414;-70
2022/03/27 07:17:27;;;;;;;24.03;22.00;;;13.00;1.10;;;;;;5011951;28;20703;-70
2022/03/27 07:19:52;;;;;;;25.83;23.83;;;12.80;1.90;;;;;;5014271;28;20235;-71
2022/03/27 07:22:18;;;;;;;26.47;24.00;;;12.20;1.40;;;;;;5013057;28;20410;-71
2022/03/27 07:24:45;;;;;;;24.83;22.30;;;11.90;2.00;;;;;;5014555;28;20182;-71
2022/03/27 07:27:12;;;;;;;25.40;23.03;;;11.60;2.00;;;;;;5013486;28;20496;-68
2022/03/27 07:29:38;;;;;;;24.67;22.57;;;11.40;2.10;;;;;;5013391;28;20974;-69
2022/03/27 07:32:05;;;;;;;24.07;21.97;;;11.30;2.70;;;;;;5012271;28;20474;-68
2022/03/27 07:34:31;;;;;;;25.90;23.70;;;11.10;2.80;;;;;;5012170;28;20428;-69
2022/03/27 07:36:57;;;;;;;26.77;24.33;;;11.00;4.10;;;;;;5011909;28;20489;-68
2022/03/27 07:39:22;;;;;;;23.27;21.27;;;10.80;3.30;;;;;;5027597;28;20424;-68
2022/03/27 07:41:48;;;;;;;23.13;21.30;;;10.70;3.10;;;;;;5012594;28;20607;-69
2022/03/27 07:44:14;;;;;;;25.83;23.53;;;10.60;3.60;;;;;;5013237;28;20640;-68
2022/03/27 07:46:40;;;;;;;24.40;22.13;;;10.10;3.90;;;;;;5012241;28;20419;-71
2022/03/27 07:49:06;;;;;;;24.23;21.80;;;10.00;4.70;;;;;;5027204;28;20192;-68
2022/03/27 07:51:33;;;;;;;23.03;21.30;;;10.20;6.80;;;;;;5011920;28;20427;-70
2022/03/27 07:53:58;;;;;;;24.10;22.07;;;10.30;5.40;;;;;;5012067;28;20929;-68
2022/03/27 07:56:25;;;;;;;23.80;21.90;;;10.50;5.30;;;;;;5010479;28;20414;-68
2022/03/27 07:58:50;;;;;;;27.07;24.37;;;10.70;4.30;;;;;;5011687;28;20661;-69
2022/03/27 08:01:16;;;;;;;24.70;22.13;;;10.70;3.80;;;;;;5008628;28;20554;-68
2022/03/27 08:03:41;;;;;;;24.17;21.63;;;10.50;4.40;;;;;;5004705;28;20234;-68
2022/03/27 08:06:08;;;;;;;23.40;21.30;;;10.70;4.70;;;;;;5013939;28;20182;-70
2022/03/27 08:08:34;;;;;;;22.13;20.40;;;10.90;4.50;;;;;;5014610;28;20236;-67
2022/03/27 08:10:59;;;;;;;21.17;19.47;;;11.00;4.50;;;;;;5015392;28;20455;-69
2022/03/27 08:13:25;;;;;;;24.83;22.37;;;11.30;3.90;;;;;;5015612;28;20786;-67
2022/03/27 08:15:51;;;;;;;22.57;20.53;;;11.40;4.20;;;;;;5015943;28;20182;-67
2022/03/27 08:18:16;;;;;;;23.77;21.43;;;11.60;3.90;;;;;;5017129;28;20217;-68
2022/03/27 08:20:42;;;;;;;23.20;21.10;;;11.80;3.70;;;;;;5016443;28;20433;-68
2022/03/27 08:23:08;;;;;;;24.17;22.03;;;12.00;4.10;;;;;;5015137;28;20188;-67
2022/03/27 08:28:20;;;;;;;25.50;23.37;;;12.40;3.30;;;;;;5011477;28;20217;-68
2022/03/27 08:30:47;;;;;;;23.30;21.57;;;12.50;2.40;;;;;;5010828;28;20473;-68
2022/03/27 08:33:14;;;;;;;24.30;22.00;;;12.30;2.80;;;;;;5011332;28;20460;-67
2022/03/27 08:35:41;;;;;;;23.07;20.90;;;12.40;3.00;;;;;;5011119;28;20425;-68
2022/03/27 08:38:08;;;;;;;22.47;20.70;;;12.50;2.40;;;;;;5011277;28;20525;-68
2022/03/27 08:40:35;;;;;;;24.23;21.97;;;12.50;2.40;;;;;;5015490;28;20434;-68
2022/03/27 08:43:01;;;;;;;24.10;21.67;;;12.50;2.40;;;;;;5018444;28;20423;-69
2022/03/27 08:45:27;;;;;;;26.07;23.80;;;12.40;2.40;;;;;;5014704;28;20462;-67
2022/03/27 08:47:54;;;;;;;23.90;21.80;;;12.40;2.30;;;;;;5010228;28;20444;-68
2022/03/27 08:50:37;;;;;;;24.27;22.53;;;12.40;3.10;;;;;;5011198;28;20493;-68
2022/03/27 08:53:05;;;;;;;22.93;20.87;;;12.30;2.70;;;;;;5008314;28;21026;-67
2022/03/27 08:55:43;;;;;;;25.53;22.90;;;12.30;3.40;;;;;;5010772;28;20971;-69
2022/03/27 08:58:11;;;;;;;22.67;20.57;;;12.40;3.50;;;;;;5009701;28;20574;-69
2022/03/27 09:00:38;;;;;;;22.40;20.10;;;12.50;3.60;;;;;;5009821;28;20843;-69
2022/03/27 09:03:05;;;;;;;31.67;24.20;;;12.60;2.70;;;;;;5009958;28;20434;-68
2022/03/27 09:05:33;;;;;;;24.77;22.60;;;12.60;3.10;;;;;;5008080;28;20425;-69
2022/03/27 09:08:07;;;;;;;22.90;21.17;;;12.50;3.00;;;;;;5005333;28;20452;-69
2022/03/27 09:10:33;;;;;;;22.50;20.60;;;12.50;3.90;;;;;;5006070;28;20458;-69
2022/03/27 09:13:00;;;;;;;22.47;20.10;;;12.40;4.50;;;;;;5007993;28;20434;-69
2022/03/27 09:15:26;;;;;;;25.17;22.90;;;12.40;4.90;;;;;;5007894;28;20469;-69
2022/03/27 09:17:57;;;;;;;23.63;21.60;;;12.20;5.20;;;;;;5010228;28;20875;-70
2022/03/27 09:20:41;;;;;;;23.87;21.27;;;12.30;5.40;;;;;;5010877;28;20191;-69
2022/03/27 09:23:24;;;;;;;22.77;20.93;;;12.50;5.40;;;;;;5008889;28;20526;-70
2022/03/27 09:25:53;;;;;;;24.10;21.90;;;12.50;5.90;;;;;;5007794;28;20438;-69
2022/03/27 09:28:46;;;;;;;23.10;21.20;;;12.70;6.00;;;;;;5009631;28;20878;-69
2022/03/27 09:31:16;;;;;;;23.80;21.50;;;12.90;5.50;;;;;;5007539;28;20463;-69
2022/03/27 09:33:47;;;;;;;24.23;21.80;;;13.10;5.70;;;;;;5012698;28;20419;-69
2022/03/27 09:36:22;;;;;;;23.07;20.70;;;13.30;5.50;;;;;;5013595;28;20419;-70
2022/03/27 09:39:08;;;;;;;23.77;21.67;;;13.40;5.20;;;;;;5013748;28;20449;-70
2022/03/27 09:41:41;;;;;;;22.47;20.30;;;13.50;4.90;;;;;;4993889;28;20439;-69
2022/03/27 09:44:10;;;;;;;22.70;20.93;;;13.70;5.40;;;;;;5002261;28;20499;-69
2022/03/27 09:46:57;;;;;;;24.10;21.63;;;13.50;3.70;;;;;;5003782;28;20430;-68
2022/03/27 09:49:30;;;;;;;24.37;22.30;;;13.20;4.70;;;;;;4993552;28;20455;-70
2022/03/27 09:51:59;;;;;;;23.03;21.10;;;13.10;5.10;;;;;;4994248;28;20447;-66
2022/03/27 09:54:27;;;;;;;23.60;21.53;;;13.20;5.30;;;;;;4993332;28;20417;-67
2022/03/27 09:56:53;;;;;;;26.97;20.57;;;13.30;5.10;;;;;;4993742;28;20427;-68
2022/03/27 09:59:34;;;;;;;23.07;20.77;;;13.40;5.40;;;;;;5019239;28;20428;-67
2022/03/27 10:02:27;;;;;;;23.17;20.70;;;13.40;4.60;;;;;;4994170;28;21011;-67
2022/03/27 10:05:00;;;;;;;23.57;21.27;;;13.60;4.40;;;;;;4993822;28;20419;-69
2022/03/27 10:07:32;;;;;;;27.43;20.97;;;13.70;4.40;;;;;;4995185;28;20427;-69
2022/03/27 10:09:57;;;;;;;20.97;19.37;;;13.80;4.10;;;;;;4998479;28;20473;-69
2022/03/27 10:12:29;;;;;;;22.00;19.97;;;14.00;4.20;;;;;;5022095;28;20434;-68
2022/03/27 10:15:11;;;;;;;24.00;21.67;;;14.10;3.60;;;;;;5033028;28;20191;-67
2022/03/27 10:17:39;;;;;;;23.90;21.90;;;14.20;3.60;;;;;;5027251;28;20448;-69
2022/03/27 10:20:08;;;;;;;22.60;20.70;;;14.30;3.70;;;;;;5015818;28;20944;-68
2022/03/27 10:22:43;;;;;;;25.10;22.67;;;14.50;3.80;;;;;;5013880;28;20962;-67
2022/03/27 10:25:10;;;;;;;21.40;19.63;;;14.60;3.70;;;;;;5013610;28;20426;-67
2022/03/27 10:27:37;;;;;;;20.60;19.10;;;14.70;3.80;;;;;;5003433;28;20459;-69
2022/03/27 10:30:05;;;;;;;22.50;20.40;;;14.80;3.50;;;;;;4993735;28;20468;-69
2022/03/27 10:32:31;;;;;;;23.03;21.20;;;14.90;3.00;;;;;;5010768;28;20522;-69
2022/03/27 10:35:36;;;;;;;24.03;21.63;;;14.90;3.00;;;;;;5012740;28;20852;-67
2022/03/27 10:38:04;;;;;;;21.93;19.90;;;15.10;2.70;;;;;;5010739;28;20547;-66
2022/03/27 10:40:45;;;;;;;22.67;20.50;;;15.20;2.70;;;;;;5012619;28;20425;-66
2022/03/27 10:43:33;;;;;;;24.40;22.40;;;15.30;2.30;;;;;;5011054;28;20437;-67
2022/03/27 10:46:23;;;;;;;22.20;20.23;;;15.40;2.40;;;;;;5010776;28;20941;-67
2022/03/27 10:48:51;;;;;;;21.37;19.50;;;15.50;2.00;;;;;;5003131;28;20982;-67
2022/03/27 10:51:38;;;;;;;23.60;21.37;;;15.70;2.30;;;;;;5012794;28;20465;-66
2022/03/27 10:54:11;;;;;;;22.17;20.33;;;15.90;2.00;;;;;;5010912;28;20837;-67
2022/03/27 10:56:42;;;;;;;25.20;23.10;;;16.00;1.10;;;;;;5012333;28;20401;-68
2022/03/27 10:59:16;;;;;;;22.67;20.77;;;16.00;1.00;;;;;;5012389;28;20512;-67
2022/03/27 11:01:56;;;;;;;23.73;21.67;;;16.10;1.20;;;;;;5012864;28;20415;-67
2022/03/27 11:04:36;;;;;;;23.87;21.50;;;16.30;1.70;;;;;;4993413;28;20419;-67
2022/03/27 11:07:17;;;;;;;23.77;21.53;;;16.50;1.10;;;;;;5024415;28;20454;-67
2022/03/27 11:09:46;;;;;;;23.53;21.83;;;16.60;1.00;;;;;;5012043;28;20461;-66
2022/03/27 11:12:28;;;;;;;23.53;21.43;;;16.60;1.00;;;;;;5011835;28;20429;-67
2022/03/27 11:15:00;;;;;;;23.23;21.30;;;16.60;1.50;;;;;;5010852;28;20452;-70
2022/03/27 11:17:33;;;;;;;22.10;20.50;;;16.60;1.30;;;;;;5023715;23;20457;-69
2022/03/27 11:20:00;;;;;;;24.07;22.13;;;16.60;1.30;;;;;;4992393;28;20795;-71
2022/03/27 11:22:47;;;;;;;23.47;21.07;;;16.80;1.20;;;;;;4997437;28;20422;-72
2022/03/27 11:25:34;;;;;;;22.87;20.97;;;16.80;1.00;;;;;;5010588;28;20419;-72
2022/03/27 11:28:08;;;;;;;24.23;22.10;;;17.00;1.00;;;;;;4995391;28;20455;-69
2022/03/27 11:30:57;;;;;;;22.17;20.67;;;17.20;1.00;;;;;;4978039;28;20463;-70
2022/03/27 11:33:29;;;;;;;23.10;21.20;;;17.50;1.00;;;;;;4994077;28;20518;-70
2022/03/27 11:36:09;;;;;;;24.53;22.37;;;17.60;1.00;;;;;;4989991;28;20428;-72
2022/03/27 11:39:01;;;;;;;21.77;20.17;;;17.60;1.00;;;;;;4988220;28;20921;-71
2022/03/27 11:41:43;;;;;;;23.17;20.97;;;17.70;1.00;;;;;;4990400;28;20449;-71
2022/03/27 11:45:06;;;;;;;22.17;20.43;;;17.70;1.00;;;;;;4990476;28;20518;-71
2022/03/27 11:47:20;;;;;;;21.17;19.37;;;17.80;1.00;;;;;;4991240;28;20438;-71
2022/03/27 11:49:47;;;;;;;22.87;20.70;;;17.90;1.00;;;;;;4992258;28;20463;-73
2022/03/27 11:52:16;;;;;;;22.77;20.57;;;18.00;1.00;;;;;;4992424;28;20481;-74
2022/03/27 11:54:42;;;;;;;20.83;19.00;;;18.00;1.00;;;;;;4985148;28;20448;-72
2022/03/27 11:57:09;;;;;;;20.47;18.90;;;18.10;1.00;;;;;;4981976;28;20428;-71
2022/03/27 11:59:52;;;;;;;22.43;20.50;;;18.20;1.00;;;;;;4976113;28;20421;-72
2022/03/27 12:02:22;;;;;;;22.33;20.50;;;18.10;1.00;;;;;;4989179;28;20435;-69
2022/03/27 12:04:53;;;;;;;23.00;21.07;;;18.00;1.00;;;;;;4995652;28;20411;-71
2022/03/27 12:07:19;;;;;;;21.03;19.73;;;18.10;1.00;;;;;;4995159;28;20439;-70
2022/03/27 12:09:54;;;;;;;21.00;19.33;;;18.20;1.00;;;;;;4994198;28;20490;-71
2022/03/27 12:12:20;;;;;;;22.10;19.40;;;18.40;1.00;;;;;;4995272;28;20501;-71
2022/03/27 12:14:54;;;;;;;22.97;20.80;;;18.50;1.00;;;;;;4993700;28;20412;-71
2022/03/27 12:17:20;;;;;;;21.30;19.80;;;18.40;1.00;;;;;;4991578;28;20575;-71
2022/03/27 12:20:06;;;;;;;22.57;20.87;;;18.50;1.00;;;;;;4993525;28;20426;-71
2022/03/27 12:22:49;;;;;;;21.30;19.87;;;18.50;1.00;;;;;;4993045;28;20470;-72
2022/03/27 12:25:19;;;;;;;20.10;18.63;;;18.50;1.00;;;;;;4991952;28;20481;-71
2022/03/27 12:30:33;;;;;;;21.80;20.10;;;18.60;1.00;;;;;;4995414;28;20474;-71
2022/03/27 12:33:00;;;;;;;20.93;19.60;;;18.80;1.00;;;;;;4995012;28;20806;-71
2022/03/27 12:35:27;;;;;;;21.10;19.50;;;18.70;1.00;;;;;;4995626;28;20975;-71
2022/03/27 12:37:53;;;;;;;20.30;19.00;;;18.60;1.00;;;;;;4995538;28;20902;-71
2022/03/27 12:40:19;;;;;;;20.90;19.30;;;18.70;1.00;;;;;;4993554;28;20439;-72
2022/03/27 12:42:48;;;;;;;20.80;19.30;;;18.80;1.00;;;;;;4994989;28;20716;-71
2022/03/27 12:45:18;;;;;;;21.70;19.70;;;19.00;1.00;;;;;;4995092;28;20180;-72
2022/03/27 12:47:49;;;;;;;21.03;19.13;;;19.10;1.00;;;;;;4994965;28;20459;-71
2022/03/27 12:50:31;;;;;;;20.10;18.70;;;19.10;1.00;;;;;;4993975;28;20538;-72
2022/03/27 12:53:04;;;;;;;19.13;17.93;;;19.30;1.00;;;;;;4994887;28;20443;-71
2022/03/27 12:55:45;;;;;;;21.57;20.10;;;19.30;1.00;;;;;;4994560;28;20921;-72